createdAt,value
2018-03-27T00:00:00.060Z,72.06
2018-03-27T00:01:00.282Z,72.22
2018-03-27T00:02:00.508Z,73.35
2018-03-27T00:03:00.738Z,73.35
2018-03-27T00:04:00.964Z,73.83
2018-03-27T00:05:01.183Z,73.73
2018-03-27T00:06:01.415Z,73.64
2018-03-27T00:07:01.632Z,73.77
2018-03-27T00:08:01.858Z,73.54
2018-03-27T00:09:02.096Z,73.54
2018-03-27T00:10:02.300Z,73.45
2018-03-27T00:11:02.522Z,74.11
2018-03-27T00:12:02.752Z,73.92
2018-03-27T00:13:02.976Z,74.43
2018-03-27T00:14:03.201Z,73.49
2018-03-27T00:15:03.423Z,73.01
2018-03-27T00:16:03.641Z,72.92
2018-03-27T00:17:03.862Z,72.16
2018-03-27T00:18:04.074Z,71.78
2018-03-27T00:19:04.293Z,72.16
2018-03-27T00:20:04.523Z,72.16
2018-03-27T00:21:04.744Z,72.25
2018-03-27T00:22:04.966Z,71.59
2018-03-27T00:23:05.188Z,71.50
2018-03-27T00:24:05.413Z,71.31
2018-03-27T00:25:05.636Z,71.50
2018-03-27T00:26:05.858Z,71.12
2018-03-27T00:27:06.079Z,71.40
2018-03-27T00:28:06.302Z,72.73
2018-03-27T00:29:06.530Z,72.25
2018-03-27T00:30:06.738Z,72.25
2018-03-27T00:31:06.971Z,71.97
2018-03-27T00:32:07.194Z,72.25
2018-03-27T00:33:07.421Z,72.73
2018-03-27T00:34:07.646Z,72.34
2018-03-27T00:35:07.867Z,71.50
2018-03-27T00:36:08.094Z,71.50
2018-03-27T00:37:08.319Z,71.31
2018-03-27T00:38:08.543Z,71.40
2018-03-27T00:39:08.763Z,71.31
2018-03-27T00:40:08.988Z,71.12
2018-03-27T00:41:09.234Z,71.21
2018-03-27T00:42:09.428Z,71.21
2018-03-27T00:43:09.665Z,71.50
2018-03-27T00:44:09.881Z,71.88
2018-03-27T00:45:10.108Z,71.50
2018-03-27T00:46:10.336Z,72.25
2018-03-27T00:47:10.577Z,73.01
2018-03-27T00:48:10.799Z,72.25
2018-03-27T00:49:11.018Z,72.16
2018-03-27T00:50:11.245Z,72.25
2018-03-27T00:51:11.470Z,72.16
2018-03-27T00:52:11.692Z,72.92
2018-03-27T00:53:11.918Z,72.16
2018-03-27T00:54:12.145Z,72.06
2018-03-27T00:55:12.369Z,72.16
2018-03-27T00:56:12.594Z,72.34
2018-03-27T00:57:12.817Z,72.34
2018-03-27T00:58:13.041Z,71.97
2018-03-27T00:59:13.264Z,71.88
2018-03-27T01:00:13.487Z,71.97
2018-03-27T01:01:13.715Z,72.34
2018-03-27T01:02:13.935Z,72.25
2018-03-27T01:03:14.157Z,73.01
2018-03-27T01:04:14.381Z,72.82
2018-03-27T01:05:14.605Z,71.97
2018-03-27T01:06:14.827Z,72.44
2018-03-27T01:07:15.050Z,72.63
2018-03-27T01:08:15.276Z,72.16
2018-03-27T01:09:15.500Z,72.16
2018-03-27T01:10:15.727Z,72.06
2018-03-27T01:11:15.961Z,72.16
2018-03-27T01:12:16.173Z,71.81
2018-03-27T01:13:16.392Z,71.53
2018-03-27T01:14:16.620Z,71.34
2018-03-27T01:15:16.838Z,70.97
2018-03-27T01:16:24.762Z,70.87
2018-03-27T01:17:24.981Z,70.39
2018-03-27T01:18:25.204Z,70.30
2018-03-27T01:19:25.462Z,70.68
2018-03-27T01:20:25.735Z,70.01
2018-03-27T01:21:25.948Z,69.73
2018-03-27T01:22:26.200Z,69.45
2018-03-27T01:23:18.785Z,69.26
2018-03-27T01:24:26.690Z,69.64
2018-03-27T01:25:26.969Z,70.45
2018-03-27T01:26:19.503Z,71.02
2018-03-27T01:27:19.712Z,71.21
2018-03-27T01:28:19.939Z,71.59
2018-03-27T01:29:20.162Z,71.88
2018-03-27T01:30:20.398Z,72.53
2018-03-27T01:31:20.613Z,72.63
2018-03-27T01:32:20.833Z,73.01
2018-03-27T01:33:21.055Z,72.06
2018-03-27T01:34:21.284Z,72.53
2018-03-27T01:35:21.505Z,72.82
2018-03-27T01:36:21.745Z,72.53
2018-03-27T01:37:21.978Z,72.63
2018-03-27T01:38:22.203Z,73.11
2018-03-27T01:39:22.402Z,73.11
2018-03-27T01:40:22.630Z,72.06
2018-03-27T01:41:22.834Z,72.06
2018-03-27T01:42:23.082Z,72.73
2018-03-27T01:43:23.309Z,73.30
2018-03-27T01:44:23.531Z,74.05
2018-03-27T01:45:23.754Z,73.73
2018-03-27T01:46:23.993Z,73.68
2018-03-27T01:47:24.198Z,73.49
2018-03-27T01:48:24.422Z,73.39
2018-03-27T01:49:24.642Z,73.01
2018-03-27T01:50:24.865Z,72.92
2018-03-27T01:51:25.087Z,72.16
2018-03-27T01:52:25.310Z,72.16
2018-03-27T01:53:25.534Z,72.25
2018-03-27T01:54:25.763Z,72.25
2018-03-27T01:55:25.996Z,72.16
2018-03-27T01:56:26.204Z,72.44
2018-03-27T01:57:26.438Z,72.06
2018-03-27T01:58:26.650Z,72.82
2018-03-27T01:59:26.875Z,72.34
2018-03-27T02:00:27.100Z,72.44
2018-03-27T02:01:27.324Z,72.63
2018-03-27T02:02:27.553Z,73.11
2018-03-27T02:03:27.771Z,73.39
2018-03-27T02:04:27.994Z,73.11
2018-03-27T02:05:28.210Z,72.92
2018-03-27T02:06:28.438Z,71.88
2018-03-27T02:07:28.718Z,72.16
2018-03-27T02:08:28.832Z,71.88
2018-03-27T02:09:29.052Z,71.53
2018-03-27T02:10:29.286Z,70.87
2018-03-27T02:11:29.524Z,70.97
2018-03-27T02:12:29.713Z,71.15
2018-03-27T02:13:29.946Z,70.97
2018-03-27T02:14:30.161Z,71.25
2018-03-27T02:15:30.386Z,71.44
2018-03-27T02:16:30.617Z,71.88
2018-03-27T02:17:30.831Z,72.16
2018-03-27T02:18:31.068Z,73.01
2018-03-27T02:19:31.283Z,72.82
2018-03-27T02:20:31.507Z,72.82
2018-03-27T02:21:31.738Z,72.06
2018-03-27T02:22:31.958Z,72.29
2018-03-27T02:23:32.192Z,71.62
2018-03-27T02:24:32.414Z,71.53
2018-03-27T02:25:32.642Z,71.34
2018-03-27T02:26:32.855Z,70.97
2018-03-27T02:27:33.079Z,70.87
2018-03-27T02:28:33.305Z,71.06
2018-03-27T02:29:33.521Z,70.97
2018-03-27T02:30:33.751Z,71.15
2018-03-27T02:31:33.972Z,71.25
2018-03-27T02:32:34.187Z,71.34
2018-03-27T02:33:34.410Z,71.15
2018-03-27T02:34:34.679Z,71.62
2018-03-27T02:35:34.859Z,71.53
2018-03-27T02:36:35.084Z,71.25
2018-03-27T02:37:35.308Z,71.34
2018-03-27T02:38:35.540Z,71.62
2018-03-27T02:39:35.761Z,72.38
2018-03-27T02:40:35.988Z,72.38
2018-03-27T02:41:36.217Z,72.57
2018-03-27T02:42:36.431Z,72.38
2018-03-27T02:43:36.664Z,73.96
2018-03-27T02:44:36.870Z,74.47
2018-03-27T02:45:37.095Z,74.95
2018-03-27T02:46:37.309Z,74.52
2018-03-27T02:47:37.534Z,74.81
2018-03-27T02:48:37.748Z,74.75
2018-03-27T02:49:37.990Z,74.66
2018-03-27T02:50:38.212Z,75.23
2018-03-27T02:51:38.451Z,75.23
2018-03-27T02:52:38.666Z,75.51
2018-03-27T02:53:38.888Z,75.57
2018-03-27T02:54:39.125Z,76.51
2018-03-27T02:55:39.336Z,76.04
2018-03-27T02:56:39.566Z,76.32
2018-03-27T02:57:39.792Z,77.18
2018-03-27T02:58:40.018Z,76.99
2018-03-27T02:59:40.255Z,77.27
2018-03-27T03:00:40.468Z,77.08
2018-03-27T03:01:40.702Z,76.55
2018-03-27T03:02:40.922Z,76.46
2018-03-27T03:03:41.134Z,76.17
2018-03-27T03:04:41.356Z,75.98
2018-03-27T03:05:41.584Z,75.89
2018-03-27T03:06:41.804Z,75.60
2018-03-27T03:07:42.030Z,75.04
2018-03-27T03:08:42.251Z,75.51
2018-03-27T03:09:42.482Z,75.23
2018-03-27T03:10:42.705Z,75.51
2018-03-27T03:11:42.928Z,75.89
2018-03-27T03:12:43.151Z,75.51
2018-03-27T03:13:43.379Z,75.70
2018-03-27T03:14:43.592Z,75.70
2018-03-27T03:15:43.822Z,75.51
2018-03-27T03:16:44.054Z,75.70
2018-03-27T03:17:44.270Z,74.95
2018-03-27T03:18:44.502Z,74.95
2018-03-27T03:19:44.715Z,74.95
2018-03-27T03:20:44.945Z,74.95
2018-03-27T03:21:45.163Z,74.37
2018-03-27T03:22:45.392Z,74.09
2018-03-27T03:23:45.616Z,74.47
2018-03-27T03:24:45.854Z,74.56
2018-03-27T03:25:46.061Z,74.95
2018-03-27T03:26:46.280Z,74.75
2018-03-27T03:27:46.509Z,74.75
2018-03-27T03:28:46.733Z,74.28
2018-03-27T03:29:46.962Z,74.37
2018-03-27T03:30:47.196Z,74.75
2018-03-27T03:31:47.413Z,74.75
2018-03-27T03:32:47.638Z,74.66
2018-03-27T03:33:47.861Z,74.85
2018-03-27T03:34:48.084Z,75.60
2018-03-27T03:35:48.311Z,76.36
2018-03-27T03:36:48.533Z,77.46
2018-03-27T03:37:48.755Z,78.50
2018-03-27T03:38:48.986Z,78.83
2018-03-27T03:39:49.207Z,78.54
2018-03-27T03:40:49.433Z,78.64
2018-03-27T03:41:49.657Z,77.59
2018-03-27T03:42:49.886Z,77.88
2018-03-27T03:43:50.107Z,77.40
2018-03-27T03:44:50.327Z,77.69
2018-03-27T03:45:50.553Z,77.03
2018-03-27T03:46:50.791Z,77.12
2018-03-27T03:47:50.998Z,76.46
2018-03-27T03:48:51.226Z,76.46
2018-03-27T03:49:51.460Z,77.12
2018-03-27T03:50:51.672Z,77.03
2018-03-27T03:51:51.897Z,76.84
2018-03-27T03:52:52.122Z,77.40
2018-03-27T03:53:52.346Z,77.97
2018-03-27T03:54:52.582Z,77.50
2018-03-27T03:55:52.812Z,77.03
2018-03-27T03:56:53.034Z,76.74
2018-03-27T03:57:53.258Z,76.55
2018-03-27T03:58:53.486Z,76.46
2018-03-27T03:59:53.710Z,76.55
2018-03-27T04:00:53.933Z,76.46
2018-03-27T04:01:54.161Z,76.65
2018-03-27T04:02:54.388Z,77.03
2018-03-27T04:03:54.617Z,76.65
2018-03-27T04:04:54.837Z,76.27
2018-03-27T04:05:55.066Z,76.84
2018-03-27T04:06:55.286Z,75.89
2018-03-27T04:07:55.510Z,76.36
2018-03-27T04:08:55.743Z,76.84
2018-03-27T04:09:55.966Z,76.46
2018-03-27T04:10:56.190Z,76.80
2018-03-27T04:11:56.412Z,76.51
2018-03-27T04:12:56.635Z,76.65
2018-03-27T04:13:56.863Z,76.55
2018-03-27T04:14:57.097Z,76.65
2018-03-27T04:15:57.315Z,76.46
2018-03-27T04:16:57.540Z,77.08
2018-03-27T04:17:57.766Z,77.65
2018-03-27T04:18:57.990Z,77.56
2018-03-27T04:19:58.217Z,77.65
2018-03-27T04:20:58.436Z,78.31
2018-03-27T04:21:58.661Z,78.98
2018-03-27T04:22:58.884Z,78.88
2018-03-27T04:23:59.112Z,79.36
2018-03-27T04:24:59.338Z,78.59
2018-03-27T04:25:59.563Z,77.84
2018-03-27T04:26:59.788Z,77.40
2018-03-27T04:28:00.017Z,77.12
2018-03-27T04:29:00.241Z,76.93
2018-03-27T04:30:00.465Z,77.31
2018-03-27T04:31:00.692Z,76.84
2018-03-27T04:32:00.918Z,76.74
2018-03-27T04:33:01.142Z,75.89
2018-03-27T04:34:10.430Z,76.74
2018-03-27T04:35:09.506Z,75.79
2018-03-27T04:36:09.524Z,75.98
2018-03-27T04:37:09.702Z,75.60
2018-03-27T04:38:09.952Z,76.08
2018-03-27T04:39:02.506Z,76.08
2018-03-27T04:40:10.407Z,75.70
2018-03-27T04:41:12.339Z,75.89
2018-03-27T04:42:10.817Z,75.13
2018-03-27T04:43:03.403Z,75.23
2018-03-27T04:44:03.614Z,74.95
2018-03-27T04:45:03.838Z,75.23
2018-03-27T04:46:04.061Z,75.42
2018-03-27T04:47:04.335Z,76.17
2018-03-27T04:48:04.520Z,76.74
2018-03-27T04:49:04.746Z,77.22
2018-03-27T04:50:04.964Z,76.93
2018-03-27T04:51:05.185Z,77.12
2018-03-27T04:52:05.423Z,77.50
2018-03-27T04:53:05.645Z,77.69
2018-03-27T04:54:05.865Z,77.59
2018-03-27T04:55:06.090Z,77.59
2018-03-27T04:56:06.348Z,77.50
2018-03-27T04:57:06.542Z,77.31
2018-03-27T04:58:06.758Z,77.59
2018-03-27T04:59:06.984Z,77.59
2018-03-27T05:00:07.207Z,77.59
2018-03-27T05:01:07.425Z,77.31
2018-03-27T05:02:07.650Z,77.31
2018-03-27T05:03:07.923Z,77.40
2018-03-27T05:04:08.155Z,77.88
2018-03-27T05:05:08.375Z,77.69
2018-03-27T05:06:08.590Z,77.50
2018-03-27T05:07:08.812Z,77.50
2018-03-27T05:08:09.037Z,77.69
2018-03-27T05:09:09.267Z,77.59
2018-03-27T05:10:09.486Z,77.31
2018-03-27T05:11:09.709Z,76.74
2018-03-27T05:12:09.931Z,77.03
2018-03-27T05:13:10.158Z,76.27
2018-03-27T05:14:10.383Z,76.55
2018-03-27T05:15:10.604Z,76.65
2018-03-27T05:16:10.833Z,76.17
2018-03-27T05:17:11.054Z,75.42
2018-03-27T05:18:11.280Z,75.70
2018-03-27T05:19:11.501Z,76.27
2018-03-27T05:20:11.726Z,76.40
2018-03-27T05:21:11.991Z,76.08
2018-03-27T05:22:12.174Z,76.74
2018-03-27T05:23:12.399Z,76.27
2018-03-27T05:24:12.622Z,76.17
2018-03-27T05:25:12.849Z,75.89
2018-03-27T05:26:13.069Z,76.17
2018-03-27T05:27:13.301Z,76.40
2018-03-27T05:28:13.511Z,75.74
2018-03-27T05:29:13.736Z,75.55
2018-03-27T05:30:13.962Z,75.74
2018-03-27T05:31:14.187Z,76.21
2018-03-27T05:32:14.419Z,76.65
2018-03-27T05:33:14.647Z,76.65
2018-03-27T05:34:14.869Z,76.50
2018-03-27T05:35:15.101Z,76.03
2018-03-27T05:36:15.327Z,75.74
2018-03-27T05:37:15.541Z,75.74
2018-03-27T05:38:15.768Z,75.36
2018-03-27T05:39:15.988Z,75.17
2018-03-27T05:40:16.209Z,75.07
2018-03-27T05:41:16.435Z,74.98
2018-03-27T05:42:16.650Z,74.98
2018-03-27T05:43:16.872Z,75.17
2018-03-27T05:44:17.098Z,75.55
2018-03-27T05:45:17.329Z,74.88
2018-03-27T05:46:17.545Z,74.98
2018-03-27T05:47:17.774Z,74.98
2018-03-27T05:48:18.002Z,74.98
2018-03-27T05:49:18.227Z,75.55
2018-03-27T05:50:18.447Z,75.74
2018-03-27T05:51:18.672Z,76.12
2018-03-27T05:52:18.896Z,76.21
2018-03-27T05:53:19.127Z,76.12
2018-03-27T05:54:19.356Z,75.74
2018-03-27T05:55:19.584Z,75.74
2018-03-27T05:56:19.804Z,75.74
2018-03-27T05:57:20.028Z,76.36
2018-03-27T05:58:20.254Z,76.55
2018-03-27T05:59:20.479Z,76.31
2018-03-27T06:00:20.699Z,76.68
2018-03-27T06:01:20.921Z,76.21
2018-03-27T06:02:21.147Z,76.03
2018-03-27T06:03:21.372Z,75.74
2018-03-27T06:04:21.598Z,76.31
2018-03-27T06:05:21.822Z,76.65
2018-03-27T06:06:22.053Z,76.55
2018-03-27T06:07:22.285Z,76.97
2018-03-27T06:08:22.501Z,75.74
2018-03-27T06:09:22.731Z,74.79
2018-03-27T06:10:22.960Z,74.88
2018-03-27T06:11:23.182Z,75.17
2018-03-27T06:12:23.412Z,74.88
2018-03-27T06:13:23.635Z,75.17
2018-03-27T06:14:23.871Z,74.98
2018-03-27T06:15:24.093Z,74.69
2018-03-27T06:16:24.314Z,76.03
2018-03-27T06:17:24.543Z,76.68
2018-03-27T06:18:24.764Z,76.74
2018-03-27T06:19:24.992Z,77.31
2018-03-27T06:20:25.212Z,76.93
2018-03-27T06:21:25.430Z,77.50
2018-03-27T06:22:25.666Z,77.06
2018-03-27T06:23:25.880Z,76.31
2018-03-27T06:24:26.103Z,76.50
2018-03-27T06:25:26.333Z,76.12
2018-03-27T06:26:26.557Z,74.88
2018-03-27T06:27:26.807Z,75.02
2018-03-27T06:28:26.997Z,73.97
2018-03-27T06:29:27.236Z,72.40
2018-03-27T06:30:27.459Z,72.02
2018-03-27T06:31:27.677Z,71.64
2018-03-27T06:32:27.895Z,71.07
2018-03-27T06:33:28.127Z,71.07
2018-03-27T06:34:28.342Z,70.88
2018-03-27T06:35:28.569Z,70.21
2018-03-27T06:36:28.792Z,70.40
2018-03-27T06:37:29.014Z,70.78
2018-03-27T06:38:29.245Z,70.40
2018-03-27T06:39:29.462Z,69.65
2018-03-27T06:40:29.700Z,69.55
2018-03-27T06:41:29.919Z,69.65
2018-03-27T06:42:30.145Z,69.08
2018-03-27T06:43:30.356Z,68.64
2018-03-27T06:44:30.581Z,68.41
2018-03-27T06:45:30.808Z,68.32
2018-03-27T06:46:31.035Z,69.65
2018-03-27T06:47:31.255Z,70.50
2018-03-27T06:48:31.480Z,70.40
2018-03-27T06:49:31.708Z,69.65
2018-03-27T06:50:31.935Z,70.03
2018-03-27T06:51:32.160Z,70.59
2018-03-27T06:52:32.383Z,70.47
2018-03-27T06:53:32.610Z,71.03
2018-03-27T06:54:32.836Z,71.13
2018-03-27T06:55:33.057Z,71.45
2018-03-27T06:56:33.284Z,71.51
2018-03-27T06:57:33.510Z,72.02
2018-03-27T06:58:33.740Z,71.36
2018-03-27T06:59:33.963Z,71.26
2018-03-27T07:00:34.210Z,71.36
2018-03-27T07:01:34.419Z,71.36
2018-03-27T07:02:34.659Z,71.36
2018-03-27T07:03:34.866Z,71.55
2018-03-27T07:04:35.123Z,71.45
2018-03-27T07:05:35.396Z,70.88
2018-03-27T07:06:35.550Z,70.40
2018-03-27T07:07:35.802Z,71.83
2018-03-27T07:08:36.019Z,71.92
2018-03-27T07:09:36.228Z,71.36
2018-03-27T07:10:36.463Z,70.84
2018-03-27T07:11:36.688Z,71.45
2018-03-27T07:12:36.909Z,71.98
2018-03-27T07:13:37.137Z,72.55
2018-03-27T07:14:37.366Z,72.11
2018-03-27T07:15:37.582Z,71.73
2018-03-27T07:16:37.851Z,71.41
2018-03-27T07:17:38.063Z,71.55
2018-03-27T07:18:38.277Z,72.36
2018-03-27T07:19:38.508Z,71.73
2018-03-27T07:20:38.761Z,71.64
2018-03-27T07:21:38.941Z,71.26
2018-03-27T07:22:39.177Z,71.17
2018-03-27T07:23:39.391Z,71.36
2018-03-27T07:24:39.617Z,71.45
2018-03-27T07:25:39.845Z,70.21
2018-03-27T07:26:40.068Z,69.93
2018-03-27T07:27:40.301Z,69.65
2018-03-27T07:28:40.524Z,70.12
2018-03-27T07:29:40.755Z,70.31
2018-03-27T07:30:40.994Z,70.88
2018-03-27T07:31:41.192Z,70.31
2018-03-27T07:32:41.417Z,70.25
2018-03-27T07:33:41.644Z,69.55
2018-03-27T07:34:41.872Z,69.96
2018-03-27T07:35:42.099Z,69.02
2018-03-27T07:36:42.321Z,68.92
2018-03-27T07:37:42.549Z,68.07
2018-03-27T07:38:42.800Z,69.21
2018-03-27T07:39:43.002Z,69.21
2018-03-27T07:40:43.226Z,68.54
2018-03-27T07:41:43.451Z,67.02
2018-03-27T07:42:43.686Z,66.74
2018-03-27T07:43:43.967Z,67.59
2018-03-27T07:44:44.409Z,67.50
2018-03-27T07:45:44.314Z,67.88
2018-03-27T07:46:44.531Z,66.67
2018-03-27T07:47:44.767Z,66.87
2018-03-27T07:48:44.991Z,67.25
2018-03-27T07:49:45.215Z,66.87
2018-03-27T07:50:45.442Z,66.96
2018-03-27T07:51:53.458Z,67.25
2018-03-27T07:52:53.665Z,67.57
2018-03-27T07:53:54.850Z,67.44
2018-03-27T07:54:54.112Z,66.39
2018-03-27T07:55:54.347Z,65.38
2018-03-27T07:56:55.794Z,65.19
2018-03-27T07:57:55.095Z,65.19
2018-03-27T07:58:56.330Z,65.28
2018-03-27T07:59:55.321Z,64.81
2018-03-27T08:00:47.847Z,64.43
2018-03-27T08:01:48.075Z,64.24
2018-03-27T08:02:48.310Z,64.05
2018-03-27T08:03:48.532Z,64.18
2018-03-27T08:04:48.758Z,63.99
2018-03-27T08:05:48.996Z,63.51
2018-03-27T08:06:49.209Z,63.23
2018-03-27T08:07:49.435Z,63.42
2018-03-27T08:08:49.665Z,63.23
2018-03-27T08:09:49.891Z,63.23
2018-03-27T08:10:50.112Z,63.23
2018-03-27T08:11:50.337Z,63.51
2018-03-27T08:12:50.601Z,63.60
2018-03-27T08:13:50.821Z,63.99
2018-03-27T08:14:51.049Z,63.32
2018-03-27T08:15:51.263Z,63.23
2018-03-27T08:16:51.494Z,63.54
2018-03-27T08:17:51.712Z,62.78
2018-03-27T08:18:51.937Z,62.49
2018-03-27T08:19:52.160Z,62.18
2018-03-27T08:20:52.387Z,62.65
2018-03-27T08:21:52.615Z,62.75
2018-03-27T08:22:52.846Z,62.37
2018-03-27T08:23:53.066Z,62.94
2018-03-27T08:24:53.291Z,63.13
2018-03-27T08:25:53.513Z,64.08
2018-03-27T08:26:53.740Z,64.21
2018-03-27T08:27:53.968Z,62.49
2018-03-27T08:28:54.202Z,61.83
2018-03-27T08:29:54.430Z,62.88
2018-03-27T08:30:54.653Z,61.55
2018-03-27T08:31:54.882Z,62.02
2018-03-27T08:32:55.103Z,62.15
2018-03-27T08:33:55.334Z,61.77
2018-03-27T08:34:55.586Z,62.15
2018-03-27T08:35:55.808Z,60.82
2018-03-27T08:36:56.049Z,60.37
2018-03-27T08:37:56.218Z,60.91
2018-03-27T08:38:56.453Z,60.66
2018-03-27T08:39:56.687Z,60.27
2018-03-27T08:40:56.916Z,59.80
2018-03-27T08:41:57.140Z,59.80
2018-03-27T08:42:57.368Z,59.89
2018-03-27T08:43:57.588Z,59.77
2018-03-27T08:44:57.811Z,59.42
2018-03-27T08:45:58.036Z,58.47
2018-03-27T08:46:58.256Z,57.80
2018-03-27T08:47:58.492Z,59.23
2018-03-27T08:48:58.713Z,59.70
2018-03-27T08:49:58.943Z,57.89
2018-03-27T08:50:59.165Z,57.89
2018-03-27T08:51:59.393Z,57.70
2018-03-27T08:52:59.617Z,57.32
2018-03-27T08:53:59.843Z,56.65
2018-03-27T08:55:00.082Z,56.65
2018-03-27T08:56:00.314Z,57.13
2018-03-27T08:57:00.533Z,56.94
2018-03-27T08:58:00.760Z,55.90
2018-03-27T08:59:00.990Z,55.99
2018-03-27T09:00:01.274Z,55.70
2018-03-27T09:01:01.485Z,54.94
2018-03-27T09:02:01.710Z,55.70
2018-03-27T09:03:02.042Z,55.51
2018-03-27T09:04:02.135Z,55.99
2018-03-27T09:05:02.360Z,55.80
2018-03-27T09:06:02.595Z,56.27
2018-03-27T09:07:02.822Z,55.04
2018-03-27T09:08:03.045Z,55.04
2018-03-27T09:09:03.279Z,56.02
2018-03-27T09:10:03.505Z,56.46
2018-03-27T09:11:03.733Z,56.27
2018-03-27T09:12:03.958Z,54.94
2018-03-27T09:13:04.178Z,55.22
2018-03-27T09:14:04.400Z,56.46
2018-03-27T09:15:04.628Z,56.02
2018-03-27T09:16:04.852Z,56.09
2018-03-27T09:17:05.096Z,55.13
2018-03-27T09:18:05.309Z,56.49
2018-03-27T09:19:05.535Z,55.73
2018-03-27T09:20:05.762Z,55.35
2018-03-27T09:21:05.990Z,56.21
2018-03-27T09:22:06.215Z,56.21
2018-03-27T09:23:06.441Z,56.02
2018-03-27T09:24:06.669Z,56.30
2018-03-27T09:25:06.896Z,56.30
2018-03-27T09:26:07.123Z,55.83
2018-03-27T09:27:07.392Z,56.87
2018-03-27T09:28:07.600Z,56.68
2018-03-27T09:29:07.816Z,56.11
2018-03-27T09:30:08.051Z,55.38
2018-03-27T09:31:08.269Z,55.28
2018-03-27T09:32:08.505Z,55.00
2018-03-27T09:33:08.714Z,53.95
2018-03-27T09:34:08.943Z,53.38
2018-03-27T09:35:09.172Z,53.76
2018-03-27T09:36:09.399Z,52.04
2018-03-27T09:37:09.631Z,52.83
2018-03-27T09:38:09.857Z,52.92
2018-03-27T09:39:10.084Z,53.02
2018-03-27T09:40:10.340Z,51.76
2018-03-27T09:41:10.544Z,51.37
2018-03-27T09:42:10.772Z,51.50
2018-03-27T09:43:10.998Z,49.97
2018-03-27T09:44:11.231Z,50.73
2018-03-27T09:45:11.457Z,49.97
2018-03-27T09:46:11.698Z,50.07
2018-03-27T09:47:11.920Z,49.87
2018-03-27T09:48:12.174Z,47.58
2018-03-27T09:49:12.396Z,47.49
2018-03-27T09:50:12.621Z,48.63
2018-03-27T09:51:12.847Z,47.49
2018-03-27T09:52:13.078Z,47.11
2018-03-27T09:53:13.303Z,47.11
2018-03-27T09:54:13.530Z,46.34
2018-03-27T09:55:13.767Z,45.87
2018-03-27T09:56:13.984Z,45.29
2018-03-27T09:57:14.214Z,45.10
2018-03-27T09:58:14.444Z,45.20
2018-03-27T09:59:14.670Z,45.78
2018-03-27T10:00:14.896Z,45.39
2018-03-27T10:01:15.124Z,45.20
2018-03-27T10:02:15.358Z,45.78
2018-03-27T10:03:15.590Z,45.87
2018-03-27T10:04:15.814Z,45.97
2018-03-27T10:05:16.044Z,45.97
2018-03-27T10:06:16.348Z,43.49
2018-03-27T10:07:16.516Z,43.39
2018-03-27T10:08:16.778Z,44.53
2018-03-27T10:09:16.973Z,44.53
2018-03-27T10:10:17.192Z,44.44
2018-03-27T10:11:17.415Z,44.15
2018-03-27T10:12:17.815Z,43.77
2018-03-27T10:13:17.810Z,44.15
2018-03-27T10:14:18.029Z,44.63
2018-03-27T10:15:18.264Z,43.49
2018-03-27T10:16:18.477Z,42.15
2018-03-27T10:17:18.713Z,42.72
2018-03-27T10:18:18.939Z,40.53
2018-03-27T10:19:19.175Z,39.39
2018-03-27T10:20:19.391Z,39.10
2018-03-27T10:21:19.622Z,39.19
2018-03-27T10:22:19.866Z,39.29
2018-03-27T10:23:20.091Z,39.10
2018-03-27T10:24:20.352Z,38.71
2018-03-27T10:25:20.587Z,38.62
2018-03-27T10:26:20.801Z,39.00
2018-03-27T10:27:21.046Z,39.22
2018-03-27T10:28:21.257Z,40.15
2018-03-27T10:29:21.478Z,41.22
2018-03-27T10:30:21.708Z,40.83
2018-03-27T10:31:21.927Z,40.17
2018-03-27T10:32:22.157Z,40.05
2018-03-27T10:33:22.396Z,39.67
2018-03-27T10:34:22.631Z,39.10
2018-03-27T10:35:22.850Z,39.19
2018-03-27T10:36:23.100Z,38.05
2018-03-27T10:37:23.308Z,37.86
2018-03-27T10:38:23.534Z,38.43
2018-03-27T10:39:23.756Z,38.81
2018-03-27T10:40:23.995Z,39.10
2018-03-27T10:41:24.223Z,37.00
2018-03-27T10:42:24.457Z,36.43
2018-03-27T10:43:24.684Z,36.43
2018-03-27T10:44:24.914Z,37.10
2018-03-27T10:45:25.205Z,36.90
2018-03-27T10:46:25.375Z,36.62
2018-03-27T10:47:25.606Z,37.38
2018-03-27T10:48:25.828Z,38.34
2018-03-27T10:49:26.057Z,38.91
2018-03-27T10:50:26.288Z,38.91
2018-03-27T10:51:26.517Z,39.86
2018-03-27T10:52:26.745Z,40.63
2018-03-27T10:53:26.972Z,38.81
2018-03-27T10:54:27.199Z,37.86
2018-03-27T10:55:27.419Z,37.76
2018-03-27T10:56:27.653Z,37.57
2018-03-27T10:57:27.883Z,35.95
2018-03-27T10:58:28.110Z,36.52
2018-03-27T10:59:28.338Z,38.54
2018-03-27T11:00:28.570Z,37.97
2018-03-27T11:01:28.792Z,37.40
2018-03-27T11:02:29.023Z,35.97
2018-03-27T11:03:29.249Z,33.97
2018-03-27T11:04:29.492Z,33.87
2018-03-27T11:05:29.721Z,34.54
2018-03-27T11:06:29.940Z,34.06
2018-03-27T11:07:30.169Z,34.82
2018-03-27T11:08:30.403Z,36.64
2018-03-27T11:09:30.629Z,35.49
2018-03-27T11:10:30.857Z,35.39
2018-03-27T11:11:31.085Z,37.02
2018-03-27T11:12:31.316Z,34.63
2018-03-27T11:13:31.539Z,34.25
2018-03-27T11:14:31.775Z,36.37
2018-03-27T11:15:31.997Z,35.70
2018-03-27T11:16:32.231Z,35.13
2018-03-27T11:17:32.480Z,35.99
2018-03-27T11:18:32.683Z,33.79
2018-03-27T11:19:32.910Z,33.31
2018-03-27T11:20:33.145Z,32.55
2018-03-27T11:21:33.374Z,32.92
2018-03-27T11:22:33.603Z,33.58
2018-03-27T11:23:41.595Z,32.73
2018-03-27T11:24:41.817Z,31.58
2018-03-27T11:25:42.114Z,32.06
2018-03-27T11:26:42.402Z,33.11
2018-03-27T11:27:34.881Z,35.02
2018-03-27T11:28:35.113Z,33.97
2018-03-27T11:29:43.054Z,33.58
2018-03-27T11:30:43.276Z,34.16
2018-03-27T11:31:43.685Z,33.29
2018-03-27T11:32:43.851Z,33.01
2018-03-27T11:33:36.373Z,35.11
2018-03-27T11:34:36.613Z,34.06
2018-03-27T11:35:36.848Z,34.34
2018-03-27T11:36:37.078Z,33.20
2018-03-27T11:37:37.304Z,33.29
2018-03-27T11:38:37.532Z,34.36
2018-03-27T11:39:37.758Z,34.54
2018-03-27T11:40:37.978Z,35.59
2018-03-27T11:41:38.218Z,35.70
2018-03-27T11:42:38.450Z,34.27
2018-03-27T11:43:38.682Z,33.79
2018-03-27T11:44:38.901Z,33.31
2018-03-27T11:45:39.134Z,33.33
2018-03-27T11:46:39.354Z,33.91
2018-03-27T11:47:39.588Z,32.86
2018-03-27T11:48:39.821Z,31.12
2018-03-27T11:49:40.090Z,32.36
2018-03-27T11:50:40.261Z,34.17
2018-03-27T11:51:40.499Z,34.36
2018-03-27T11:52:40.725Z,34.08
2018-03-27T11:53:40.953Z,33.50
2018-03-27T11:54:41.195Z,33.12
2018-03-27T11:55:41.408Z,33.89
2018-03-27T11:56:41.645Z,33.22
2018-03-27T11:57:41.870Z,33.22
2018-03-27T11:58:42.096Z,33.62
2018-03-27T11:59:42.324Z,34.09
2018-03-27T12:00:42.557Z,34.38
2018-03-27T12:01:42.780Z,33.91
2018-03-27T12:02:43.007Z,33.52
2018-03-27T12:03:43.237Z,34.67
2018-03-27T12:04:43.470Z,35.24
2018-03-27T12:05:43.697Z,35.33
2018-03-27T12:06:43.923Z,35.43
2018-03-27T12:07:44.152Z,35.62
2018-03-27T12:08:44.374Z,35.43
2018-03-27T12:09:44.624Z,35.14
2018-03-27T12:10:44.855Z,34.30
2018-03-27T12:11:45.088Z,34.40
2018-03-27T12:12:45.315Z,34.30
2018-03-27T12:13:45.625Z,33.06
2018-03-27T12:14:45.759Z,33.07
2018-03-27T12:15:45.993Z,32.78
2018-03-27T12:16:46.238Z,31.92
2018-03-27T12:17:46.443Z,32.49
2018-03-27T12:18:46.672Z,32.39
2018-03-27T12:19:46.903Z,32.50
2018-03-27T12:20:47.133Z,32.79
2018-03-27T12:21:47.385Z,33.25
2018-03-27T12:22:47.584Z,33.15
2018-03-27T12:23:47.813Z,33.84
2018-03-27T12:24:48.050Z,34.22
2018-03-27T12:25:48.284Z,34.03
2018-03-27T12:26:48.512Z,38.71
2018-03-27T12:27:48.797Z,40.94
2018-03-27T12:28:48.976Z,42.27
2018-03-27T12:29:49.200Z,40.77
2018-03-27T12:30:49.426Z,35.88
2018-03-27T12:31:49.652Z,36.36
2018-03-27T12:32:49.885Z,33.97
2018-03-27T12:33:50.116Z,32.54
2018-03-27T12:34:50.344Z,33.86
2018-03-27T12:35:50.573Z,35.96
2018-03-27T12:36:50.804Z,33.67
2018-03-27T12:37:51.032Z,33.76
2018-03-27T12:38:51.261Z,34.05
2018-03-27T12:39:51.491Z,33.00
2018-03-27T12:40:51.721Z,32.90
2018-03-27T12:41:51.978Z,34.24
2018-03-27T12:42:52.207Z,34.43
2018-03-27T12:43:52.437Z,34.05
2018-03-27T12:44:52.669Z,33.78
2018-03-27T12:45:52.900Z,33.78
2018-03-27T12:46:53.131Z,33.57
2018-03-27T12:47:53.363Z,32.81
2018-03-27T12:48:53.589Z,32.81
2018-03-27T12:49:53.820Z,33.67
2018-03-27T12:50:54.046Z,33.48
2018-03-27T12:51:54.275Z,34.43
2018-03-27T12:52:54.505Z,33.86
2018-03-27T12:53:54.736Z,31.85
2018-03-27T12:54:54.968Z,31.18